Centerfield, UT (84622)

9:26 PM MST on November 27, 2014 (GMT -0700)
RAWS SEVIER RESERVOIR UT US | Change Station
CLOSE
Current Station
Personal Weather Station
Location: Scipio, UT
Elevation: 5369 ft
Nearby Weather Stations

Elev 5369 ft 39.33 °N, 112.05 °W | Updated 35 minutes ago

Partly Cloudy
Partly Cloudy
40 °F
Feels Like 37 °F
N
4
Wind Variable Wind from NNE
Gusts 8.0 mph

Today
High -- | Low -- °F
--% Chance of Precip.
Yesterday
High -- | Low -- °F
Precip. -- in
7:23 AM 5:06 PM
Waxing Crescent, 36% visible
Pressure 30.38 in
Visibility 10.0 miles
Clouds Clear
Windchill 37 °F
Dew Point 27 °F
Humidity 60%
Rainfall 0.00 in
Snow Depth Not available.
UV 0 out of 12
Pollen .10 out of 12
Air Quality Not available.
Flu Activity Not available.
METAR KPUC 280353Z AUTO 01006KT 10SM CLR 01/M05 A3030 RMK AO2 SLP286 T00061050

More Conditions Fewer Conditions

Pressure 30.38 in
Visibility 10.0 miles
Clouds Clear
Windchill 37 °F
Dew Point 27 °F
Humidity 60%
Rainfall 0.00 in
Snow Depth Not available.
UV 0 out of 12
Pollen .10 out of 12
Air Quality Not available.
Flu Activity Not available.
METAR KPUC 280353Z AUTO 01006KT 10SM CLR 01/M05 A3030 RMK AO2 SLP286 T00061050

More Conditions Fewer Conditions

10-Day Weather Forecast

Almanac

Astronomy

Nov. 27, 2014 Rise Set
Actual Time
Civil Twilight
Nautical Twilight
Astronomical Twilight
Moon
Length of Visible Light
Length of Day
Tomorrow will be .
, % of the Moon is Illuminated

Today's Extremes

State Highs State Lows

Community

WunderPhotos

Upload Photos

1,774,180 photos uploaded!

WunderBlogs® & News

Nearby

Air Quality

  Air Quality AQ Index Pollutant
Not available.

Snow Depth

Station Depth Elevation

Earthquake Activity

City Distance Mag. Time & Date
Minimum magnitude displayed is 2.5.

Coastal Water Temperatures

Place Temperature

Nearby Weather Stations